Time;durP1;ratioP1;P1;durP2;ratioP2;P2;SDS_P1;SDS_P2;PMS_P1;PMS_P2;Temp;Humidity;BMP_temperature;BMP_pressure;BME280_temperature;BME280_humidity;BME280_pressure;Samples;Min_cycle;Max_cycle;Signal;HPM_P1;HPM_P2
2021/10/26 00:01:44;;;;;;;19.52;10.38;;;;;;;;;;4981614;28;20051;-62
2021/10/26 00:04:10;;;;;;;21.38;10.75;;;;;;;;;;4965599;28;20129;-62
2021/10/26 00:06:38;;;;;;;22.45;10.75;;;;;;;;;;4963566;28;20101;-62
2021/10/26 00:09:05;;;;;;;24.97;10.97;;;;;;;;;;4962356;28;20130;-62
2021/10/26 00:11:33;;;;;;;25.13;10.90;;;;;;;;;;4978074;28;20060;-62
2021/10/26 00:13:59;;;;;;;26.88;11.43;;;;;;;;;;4945726;28;20067;-62
2021/10/26 00:16:27;;;;;;;22.67;10.75;;;;;;;;;;4966011;28;20054;-62
2021/10/26 00:18:53;;;;;;;24.90;11.55;;;;;;;;;;4975268;28;20624;-62
2021/10/26 00:21:20;;;;;;;21.38;10.93;;;;;;;;;;4985105;28;20071;-62
2021/10/26 00:23:48;;;;;;;25.00;11.77;;;;;;;;;;4980290;28;20027;-62
2021/10/26 00:26:15;;;;;;;24.70;12.00;;;;;;;;;;4967119;28;20050;-62
2021/10/26 00:28:41;;;;;;;21.98;11.40;;;;;;;;;;4963239;28;20050;-62
2021/10/26 00:31:08;;;;;;;26.60;11.25;;;;;;;;;;4966415;28;20113;-62
2021/10/26 00:33:34;;;;;;;24.98;11.25;;;;;;;;;;4958983;28;20043;-62
2021/10/26 00:36:03;;;;;;;23.08;11.32;;;;;;;;;;4964852;28;20042;-62
2021/10/26 00:38:30;;;;;;;25.38;10.98;;;;;;;;;;4947760;28;20165;-62
2021/10/26 00:40:59;;;;;;;27.35;11.70;;;;;;;;;;4966959;28;20039;-62
2021/10/26 00:43:25;;;;;;;24.50;12.10;;;;;;;;;;4961340;28;20035;-62
2021/10/26 00:45:53;;;;;;;25.63;12.20;;;;;;;;;;4967274;28;20049;-62
2021/10/26 00:48:20;;;;;;;24.90;11.10;;;;;;;;;;4967408;28;20046;-62
2021/10/26 00:50:46;;;;;;;24.20;11.15;;;;;;;;;;4965755;28;20039;-62
2021/10/26 00:53:15;;;;;;;33.78;11.52;;;;;;;;;;4983176;28;20093;-62
2021/10/26 00:55:42;;;;;;;33.45;12.23;;;;;;;;;;4963696;28;20038;-62
2021/10/26 00:58:12;;;;;;;31.20;11.52;;;;;;;;;;4983778;28;20043;-62
2021/10/26 01:00:39;;;;;;;23.83;11.27;;;;;;;;;;4965349;28;20042;-62
2021/10/26 01:03:05;;;;;;;24.63;11.10;;;;;;;;;;4947490;28;20093;-62
2021/10/26 01:05:34;;;;;;;24.50;10.80;;;;;;;;;;4954761;28;20054;-62
2021/10/26 01:08:01;;;;;;;25.75;12.48;;;;;;;;;;4963791;28;20047;-62
2021/10/26 01:10:28;;;;;;;28.33;11.35;;;;;;;;;;4951159;28;20170;-62
2021/10/26 01:12:55;;;;;;;24.10;11.90;;;;;;;;;;4946490;28;20118;-62
2021/10/26 01:15:23;;;;;;;24.75;11.98;;;;;;;;;;4930294;28;20035;-62
2021/10/26 01:17:52;;;;;;;25.42;11.98;;;;;;;;;;4926780;29;20068;-62
2021/10/26 01:20:20;;;;;;;32.40;11.77;;;;;;;;;;4952539;28;20056;-62
2021/10/26 01:22:46;;;;;;;31.83;12.47;;;;;;;;;;4964432;28;20054;-62
2021/10/26 01:25:14;;;;;;;25.52;11.52;;;;;;;;;;4958183;28;20316;-62
2021/10/26 01:27:44;;;;;;;27.40;12.95;;;;;;;;;;4946262;28;20074;-62
2021/10/26 01:30:12;;;;;;;22.10;11.60;;;;;;;;;;4943103;28;20053;-62
2021/10/26 01:32:38;;;;;;;24.23;11.85;;;;;;;;;;4964076;28;20051;-62
2021/10/26 01:35:07;;;;;;;26.38;12.20;;;;;;;;;;4964125;28;20192;-62
2021/10/26 01:37:35;;;;;;;33.08;13.13;;;;;;;;;;4961235;28;20047;-62
2021/10/26 01:40:02;;;;;;;26.20;11.75;;;;;;;;;;4947409;28;20047;-62
2021/10/26 01:42:28;;;;;;;30.83;13.48;;;;;;;;;;4943041;28;20043;-62
2021/10/26 01:44:56;;;;;;;24.17;12.63;;;;;;;;;;4946969;28;20039;-62
2021/10/26 01:47:23;;;;;;;29.75;12.50;;;;;;;;;;4943822;28;20039;-62
2021/10/26 01:49:49;;;;;;;28.65;12.40;;;;;;;;;;4947910;28;20126;-62
2021/10/26 01:52:16;;;;;;;31.73;12.43;;;;;;;;;;4944891;28;20055;-62
2021/10/26 01:54:45;;;;;;;28.17;12.43;;;;;;;;;;4946083;28;20130;-61
2021/10/26 01:57:13;;;;;;;26.70;13.32;;;;;;;;;;4943687;28;20118;-62
2021/10/26 01:59:40;;;;;;;32.30;12.38;;;;;;;;;;4946971;28;20050;-62
2021/10/26 02:02:06;;;;;;;29.88;13.07;;;;;;;;;;4935861;28;20027;-62
2021/10/26 02:04:33;;;;;;;35.35;13.75;;;;;;;;;;4946763;28;20043;-62
2021/10/26 02:06:59;;;;;;;25.00;12.32;;;;;;;;;;4941782;28;20043;-62
2021/10/26 02:09:26;;;;;;;33.00;12.60;;;;;;;;;;4964593;28;20047;-62
2021/10/26 02:11:54;;;;;;;32.70;12.48;;;;;;;;;;4937422;28;20055;-62
2021/10/26 02:14:20;;;;;;;26.93;12.60;;;;;;;;;;4947508;28;20035;-62
2021/10/26 02:16:47;;;;;;;26.05;11.77;;;;;;;;;;4947257;28;20031;-62
2021/10/26 02:19:13;;;;;;;24.88;12.73;;;;;;;;;;4944513;28;20031;-62
2021/10/26 02:21:40;;;;;;;30.10;14.30;;;;;;;;;;4948076;28;20054;-62
2021/10/26 02:24:06;;;;;;;25.08;12.38;;;;;;;;;;4948369;28;20047;-62
2021/10/26 02:26:34;;;;;;;34.65;12.45;;;;;;;;;;4950870;28;20070;-62
2021/10/26 02:29:02;;;;;;;27.60;12.95;;;;;;;;;;4946385;28;20047;-62
2021/10/26 02:31:28;;;;;;;32.25;13.32;;;;;;;;;;4947669;28;20054;-62
2021/10/26 02:33:55;;;;;;;30.70;11.82;;;;;;;;;;4974014;28;20042;-62
2021/10/26 02:36:22;;;;;;;30.00;13.15;;;;;;;;;;4968760;28;20046;-62
2021/10/26 02:38:48;;;;;;;26.15;13.02;;;;;;;;;;4955830;28;20039;-62
2021/10/26 02:41:15;;;;;;;30.00;13.88;;;;;;;;;;4948721;28;20042;-62
2021/10/26 02:43:41;;;;;;;25.88;12.48;;;;;;;;;;4945607;28;20043;-62
2021/10/26 02:46:12;;;;;;;25.25;12.30;;;;;;;;;;4949542;28;20062;-62
2021/10/26 02:48:40;;;;;;;26.60;12.45;;;;;;;;;;4948799;28;20050;-62
2021/10/26 02:51:07;;;;;;;27.60;12.68;;;;;;;;;;4982825;28;20121;-62
2021/10/26 02:53:34;;;;;;;26.92;13.32;;;;;;;;;;4962763;28;20061;-62
2021/10/26 02:56:01;;;;;;;26.00;12.70;;;;;;;;;;4947302;28;20039;-62
2021/10/26 02:58:27;;;;;;;27.08;13.07;;;;;;;;;;4948518;28;20039;-62
2021/10/26 03:00:54;;;;;;;31.33;13.82;;;;;;;;;;4946356;28;20058;-62
2021/10/26 03:03:21;;;;;;;36.08;13.18;;;;;;;;;;4949165;28;20047;-62
2021/10/26 03:05:48;;;;;;;28.30;13.80;;;;;;;;;;4962465;28;20193;-62
2021/10/26 03:08:16;;;;;;;33.58;14.50;;;;;;;;;;4983819;28;20041;-62
2021/10/26 03:10:43;;;;;;;34.00;12.65;;;;;;;;;;4961933;28;20061;-62
2021/10/26 03:13:09;;;;;;;33.58;12.60;;;;;;;;;;4930525;29;20059;-62
2021/10/26 03:15:37;;;;;;;30.60;13.30;;;;;;;;;;4949315;28;20050;-62
2021/10/26 03:18:04;;;;;;;29.45;13.20;;;;;;;;;;4968566;28;20113;-62
2021/10/26 03:20:31;;;;;;;29.38;12.35;;;;;;;;;;4954890;28;20043;-62
2021/10/26 03:22:58;;;;;;;24.40;11.93;;;;;;;;;;4967394;28;20047;-62
2021/10/26 03:25:26;;;;;;;28.23;14.23;;;;;;;;;;4962328;28;20043;-62
2021/10/26 03:27:53;;;;;;;28.97;13.53;;;;;;;;;;4948314;28;20043;-62
2021/10/26 03:30:20;;;;;;;29.88;13.23;;;;;;;;;;4945314;28;20285;-61
2021/10/26 03:32:46;;;;;;;27.67;12.52;;;;;;;;;;4947201;28;20042;-62
2021/10/26 03:35:13;;;;;;;28.10;14.07;;;;;;;;;;4946830;28;20131;-62
2021/10/26 03:37:41;;;;;;;27.52;14.50;;;;;;;;;;4967448;28;20059;-62
2021/10/26 03:40:09;;;;;;;29.48;13.90;;;;;;;;;;4965458;28;20105;-62
2021/10/26 03:42:35;;;;;;;32.22;14.40;;;;;;;;;;4948352;28;20050;-62
2021/10/26 03:45:05;;;;;;;29.95;14.00;;;;;;;;;;4948204;28;20049;-62
2021/10/26 03:47:32;;;;;;;32.45;14.27;;;;;;;;;;4954558;28;20030;-62
2021/10/26 03:49:58;;;;;;;34.00;14.05;;;;;;;;;;4945695;29;20054;-62
2021/10/26 03:52:25;;;;;;;28.35;12.98;;;;;;;;;;4955262;28;20071;-62
2021/10/26 03:54:55;;;;;;;33.65;14.23;;;;;;;;;;4969089;28;20038;-62
2021/10/26 03:57:22;;;;;;;36.13;14.18;;;;;;;;;;4951396;28;20047;-62
2021/10/26 03:59:48;;;;;;;30.42;14.25;;;;;;;;;;4947553;28;20063;-62
2021/10/26 04:02:19;;;;;;;29.83;13.70;;;;;;;;;;4952309;28;20038;-62
2021/10/26 04:04:46;;;;;;;28.67;13.13;;;;;;;;;;4967663;28;20050;-62
2021/10/26 04:07:13;;;;;;;28.08;13.77;;;;;;;;;;4974901;28;20088;-62
2021/10/26 04:09:46;;;;;;;29.67;13.60;;;;;;;;;;5003824;28;20116;-61
2021/10/26 04:12:23;;;;;;;30.58;13.55;;;;;;;;;;4973151;28;20125;-62
2021/10/26 04:14:56;;;;;;;31.20;13.43;;;;;;;;;;4966408;28;20030;-62
2021/10/26 04:17:23;;;;;;;30.98;13.18;;;;;;;;;;4981995;28;20042;-62
2021/10/26 04:19:50;;;;;;;29.00;12.93;;;;;;;;;;4984055;28;20047;-61
2021/10/26 04:22:20;;;;;;;28.85;13.15;;;;;;;;;;4966153;28;20030;-62
2021/10/26 04:24:47;;;;;;;30.02;13.50;;;;;;;;;;4985662;28;20050;-62
2021/10/26 04:27:15;;;;;;;32.85;13.60;;;;;;;;;;4983101;28;20038;-62
2021/10/26 04:29:42;;;;;;;30.75;14.25;;;;;;;;;;4985584;28;20038;-62
2021/10/26 04:32:10;;;;;;;29.15;13.40;;;;;;;;;;4982709;28;20042;-62
2021/10/26 04:34:37;;;;;;;28.23;13.60;;;;;;;;;;4964950;28;20046;-62
2021/10/26 04:37:06;;;;;;;36.53;14.32;;;;;;;;;;4984643;28;20030;-62
2021/10/26 04:39:32;;;;;;;;;;;;;;;;;;4965804;28;20051;-62
2021/10/26 04:41:58;;;;;;;28.77;13.07;;;;;;;;;;4982921;28;20008;-62
2021/10/26 04:44:27;;;;;;;34.20;13.43;;;;;;;;;;4975664;28;20150;-62
2021/10/26 04:46:53;;;;;;;40.85;13.48;;;;;;;;;;4985639;28;20113;-61
2021/10/26 04:49:19;;;;;;;32.22;13.23;;;;;;;;;;4981321;28;20108;-61
2021/10/26 04:51:46;;;;;;;37.05;13.43;;;;;;;;;;4984057;28;20046;-62
2021/10/26 04:54:12;;;;;;;31.73;13.77;;;;;;;;;;4974335;28;20112;-61
2021/10/26 04:56:39;;;;;;;31.20;14.07;;;;;;;;;;4985047;28;20045;-62
2021/10/26 04:59:05;;;;;;;31.70;14.48;;;;;;;;;;4992254;28;20058;-62
2021/10/26 05:01:33;;;;;;;32.28;14.43;;;;;;;;;;4966340;28;20157;-61
2021/10/26 05:04:00;;;;;;;41.33;14.10;;;;;;;;;;4963893;28;20046;-62
2021/10/26 05:06:26;;;;;;;33.30;13.77;;;;;;;;;;4979182;28;20055;-61
2021/10/26 05:08:53;;;;;;;34.03;14.85;;;;;;;;;;4945051;28;20046;-62
2021/10/26 05:11:20;;;;;;;41.63;17.27;;;;;;;;;;4963474;28;20050;-62
2021/10/26 05:13:47;;;;;;;35.40;15.85;;;;;;;;;;4944395;28;20053;-62
2021/10/26 05:16:13;;;;;;;29.65;14.20;;;;;;;;;;4949129;28;20126;-62
2021/10/26 05:18:45;;;;;;;32.53;14.10;;;;;;;;;;4963542;28;20059;-61
2021/10/26 05:21:15;;;;;;;31.88;14.88;;;;;;;;;;4957877;28;20051;-62
2021/10/26 05:23:45;;;;;;;35.20;14.77;;;;;;;;;;4945851;28;20039;-62
2021/10/26 05:26:18;;;;;;;33.47;14.70;;;;;;;;;;4940992;28;20054;-62
2021/10/26 05:28:45;;;;;;;34.92;14.52;;;;;;;;;;4949157;28;20035;-62
2021/10/26 05:31:12;;;;;;;30.48;14.43;;;;;;;;;;4941680;28;20046;-62
2021/10/26 05:33:38;;;;;;;45.65;16.50;;;;;;;;;;4946766;28;20117;-62
2021/10/26 05:36:07;;;;;;;33.25;14.10;;;;;;;;;;4942163;28;20044;-62
2021/10/26 05:38:34;;;;;;;30.05;14.02;;;;;;;;;;4944477;28;20052;-62
2021/10/26 05:41:01;;;;;;;32.42;15.15;;;;;;;;;;4942219;28;20046;-62
2021/10/26 05:43:27;;;;;;;31.58;13.15;;;;;;;;;;4944708;28;20069;-61
2021/10/26 05:45:55;;;;;;;27.85;13.07;;;;;;;;;;4941418;28;20058;-62
2021/10/26 05:48:22;;;;;;;35.25;15.20;;;;;;;;;;4941881;28;20032;-62
2021/10/26 05:50:49;;;;;;;32.17;15.48;;;;;;;;;;4942144;28;20043;-62
2021/10/26 05:53:16;;;;;;;39.10;16.15;;;;;;;;;;4944330;28;20039;-61
2021/10/26 05:55:43;;;;;;;43.40;18.17;;;;;;;;;;4941157;28;20051;-62
2021/10/26 05:58:12;;;;;;;39.70;17.05;;;;;;;;;;4947801;28;20113;-62
2021/10/26 06:00:38;;;;;;;37.53;17.00;;;;;;;;;;4944799;28;20070;-62
2021/10/26 06:03:05;;;;;;;35.03;16.23;;;;;;;;;;4946091;28;20057;-62
2021/10/26 06:05:33;;;;;;;34.78;14.85;;;;;;;;;;4946387;28;20039;-62
2021/10/26 06:08:00;;;;;;;39.47;15.50;;;;;;;;;;4960282;28;20082;-62
2021/10/26 06:10:29;;;;;;;32.55;15.32;;;;;;;;;;4966920;28;20055;-62
2021/10/26 06:12:58;;;;;;;35.80;15.55;;;;;;;;;;4964802;28;20144;-62
2021/10/26 06:15:25;;;;;;;39.63;13.80;;;;;;;;;;4972097;28;20058;-62
2021/10/26 06:17:51;;;;;;;33.20;14.65;;;;;;;;;;4987965;28;20056;-62
2021/10/26 06:20:18;;;;;;;36.92;16.00;;;;;;;;;;4968054;28;20043;-62
2021/10/26 06:22:44;;;;;;;34.47;14.73;;;;;;;;;;4965573;28;20120;-62
2021/10/26 06:25:11;;;;;;;31.48;13.93;;;;;;;;;;4969981;28;20075;-62
2021/10/26 06:27:39;;;;;;;37.70;16.38;;;;;;;;;;4965454;28;20047;-62
2021/10/26 06:30:06;;;;;;;31.02;14.55;;;;;;;;;;4968462;28;20053;-62
2021/10/26 06:32:33;;;;;;;36.42;15.20;;;;;;;;;;4964304;28;20035;-62
2021/10/26 06:35:00;;;;;;;39.25;15.07;;;;;;;;;;4969294;28;20046;-62
2021/10/26 06:37:28;;;;;;;36.40;16.35;;;;;;;;;;4965994;28;20043;-62
2021/10/26 06:39:56;;;;;;;29.60;13.68;;;;;;;;;;4967712;28;20050;-62
2021/10/26 06:42:23;;;;;;;35.90;13.95;;;;;;;;;;4982328;28;20047;-62
2021/10/26 06:44:51;;;;;;;34.35;14.68;;;;;;;;;;4967929;28;20034;-62
2021/10/26 06:47:19;;;;;;;32.63;13.90;;;;;;;;;;4968112;28;20133;-61
2021/10/26 06:49:46;;;;;;;37.60;14.97;;;;;;;;;;4982915;28;20041;-62
2021/10/26 06:52:13;;;;;;;31.60;14.57;;;;;;;;;;4988550;28;20048;-62
2021/10/26 06:54:39;;;;;;;31.65;14.25;;;;;;;;;;4968072;28;20054;-62
2021/10/26 06:57:06;;;;;;;41.40;17.13;;;;;;;;;;4969757;28;20035;-62
2021/10/26 06:59:34;;;;;;;36.88;16.75;;;;;;;;;;4982090;28;20046;-62
2021/10/26 07:02:03;;;;;;;42.92;17.45;;;;;;;;;;4980016;28;20034;-63
2021/10/26 07:04:31;;;;;;;39.97;16.83;;;;;;;;;;4964341;28;20042;-62
2021/10/26 07:06:57;;;;;;;39.15;15.95;;;;;;;;;;4959791;28;20027;-61
2021/10/26 07:09:24;;;;;;;37.83;15.75;;;;;;;;;;4961245;28;20051;-61
2021/10/26 07:11:50;;;;;;;34.83;15.70;;;;;;;;;;4949612;28;20121;-62
2021/10/26 07:14:17;;;;;;;35.35;16.45;;;;;;;;;;4946889;28;20055;-61
2021/10/26 07:16:43;;;;;;;30.77;14.85;;;;;;;;;;4966333;28;20063;-61
2021/10/26 07:19:11;;;;;;;33.67;15.13;;;;;;;;;;4963249;28;20126;-61
2021/10/26 07:21:38;;;;;;;34.50;14.43;;;;;;;;;;4948139;28;20043;-61
2021/10/26 07:24:05;;;;;;;35.00;14.85;;;;;;;;;;4946178;28;20042;-62
2021/10/26 07:26:33;;;;;;;38.88;13.57;;;;;;;;;;4968129;28;20054;-61
2021/10/26 07:29:00;;;;;;;34.92;14.45;;;;;;;;;;4982809;28;20039;-61
2021/10/26 07:31:27;;;;;;;34.97;14.68;;;;;;;;;;4965985;28;20117;-62
2021/10/26 07:33:57;;;;;;;36.33;15.05;;;;;;;;;;4966545;28;20062;-61
2021/10/26 07:36:29;;;;;;;34.78;14.13;;;;;;;;;;4965024;28;20056;-61
2021/10/26 07:38:59;;;;;;;36.42;14.20;;;;;;;;;;4984735;28;20054;-61
2021/10/26 07:41:26;;;;;;;36.53;14.90;;;;;;;;;;4947369;28;20067;-62
2021/10/26 07:43:52;;;;;;;41.97;16.33;;;;;;;;;;4948632;28;20055;-61
2021/10/26 07:46:19;;;;;;;39.55;15.63;;;;;;;;;;4958022;28;20038;-62
2021/10/26 07:48:45;;;;;;;45.83;16.95;;;;;;;;;;4967293;28;20038;-62
2021/10/26 07:51:12;;;;;;;37.22;14.63;;;;;;;;;;4957789;28;20046;-62
2021/10/26 07:53:39;;;;;;;43.70;15.85;;;;;;;;;;4966127;28;20087;-62
2021/10/26 07:56:08;;;;;;;39.25;14.60;;;;;;;;;;4980768;28;20062;-62
2021/10/26 07:58:35;;;;;;;35.33;15.25;;;;;;;;;;4966975;28;20065;-61
2021/10/26 08:01:02;;;;;;;45.22;16.98;;;;;;;;;;4965004;28;20053;-62
2021/10/26 08:03:29;;;;;;;40.97;17.20;;;;;;;;;;4967196;28;20054;-61
2021/10/26 08:05:55;;;;;;;43.58;15.88;;;;;;;;;;4961238;28;20046;-61
2021/10/26 08:08:22;;;;;;;43.28;15.75;;;;;;;;;;4946898;28;20054;-61
2021/10/26 08:10:50;;;;;;;37.10;14.43;;;;;;;;;;4944137;28;20095;-62
2021/10/26 08:13:16;;;;;;;42.47;16.83;;;;;;;;;;4929344;29;20055;-62
2021/10/26 08:15:44;;;;;;;44.00;17.55;;;;;;;;;;4928835;29;20163;-62
2021/10/26 08:18:11;;;;;;;39.92;16.15;;;;;;;;;;4962778;28;20030;-61
2021/10/26 08:20:39;;;;;;;34.42;15.32;;;;;;;;;;4964515;28;20035;-61
2021/10/26 08:23:05;;;;;;;36.05;15.20;;;;;;;;;;4945524;28;20050;-61
2021/10/26 08:25:36;;;;;;;40.83;15.95;;;;;;;;;;4947254;28;20041;-61
2021/10/26 08:28:09;;;;;;;37.42;16.42;;;;;;;;;;4943852;28;20043;-62
2021/10/26 08:30:40;;;;;;;45.88;17.38;;;;;;;;;;4947951;28;20031;-62
2021/10/26 08:33:17;;;;;;;40.65;16.75;;;;;;;;;;4957326;28;20043;-62
2021/10/26 08:35:46;;;;;;;45.38;17.38;;;;;;;;;;4968359;28;20053;-62
2021/10/26 08:38:13;;;;;;;47.38;17.33;;;;;;;;;;4967874;28;20076;-62
2021/10/26 08:40:46;;;;;;;51.60;18.75;;;;;;;;;;4948096;28;20049;-61
2021/10/26 08:43:14;;;;;;;48.42;17.02;;;;;;;;;;4961387;28;20051;-62
2021/10/26 08:45:44;;;;;;;43.03;15.02;;;;;;;;;;4964902;28;20047;-61
2021/10/26 08:48:14;;;;;;;44.58;16.58;;;;;;;;;;4962777;28;20105;-61
2021/10/26 08:50:40;;;;;;;46.75;15.98;;;;;;;;;;4963582;28;20054;-61
2021/10/26 08:53:07;;;;;;;44.88;16.27;;;;;;;;;;4942973;28;20051;-62
2021/10/26 08:55:38;;;;;;;37.22;15.05;;;;;;;;;;4947124;28;20043;-61
2021/10/26 08:58:06;;;;;;;44.95;15.77;;;;;;;;;;4962052;28;20042;-61
2021/10/26 09:00:34;;;;;;;41.20;15.97;;;;;;;;;;4947784;28;20055;-62
2021/10/26 09:03:02;;;;;;;42.53;14.63;;;;;;;;;;4946676;28;20058;-61
2021/10/26 09:05:30;;;;;;;33.70;14.30;;;;;;;;;;4966952;28;20042;-61
2021/10/26 09:08:00;;;;;;;40.80;15.20;;;;;;;;;;4977962;28;20070;-61
2021/10/26 09:10:28;;;;;;;39.85;14.68;;;;;;;;;;4971845;28;20039;-61
2021/10/26 09:18:36;;;;;;;39.08;13.70;;;;;;;;;;4965949;28;20045;-61
2021/10/26 09:21:03;;;;;;;38.03;13.48;;;;;;;;;;4982676;28;20093;-62
2021/10/26 09:23:30;;;;;;;37.38;13.10;;;;;;;;;;4969139;28;20368;-62
2021/10/26 09:25:58;;;;;;;32.38;12.57;;;;;;;;;;4981759;28;20054;-62
2021/10/26 09:28:25;;;;;;;37.15;12.55;;;;;;;;;;4965440;28;20046;-62
2021/10/26 09:31:00;;;;;;;39.53;12.77;;;;;;;;;;4961462;28;20063;-62
2021/10/26 09:33:31;;;;;;;35.17;12.32;;;;;;;;;;4965235;28;20050;-62
2021/10/26 09:36:14;;;;;;;31.38;11.95;;;;;;;;;;4965855;28;20051;-62
2021/10/26 09:38:40;;;;;;;33.38;12.63;;;;;;;;;;4964413;28;20116;-62
2021/10/26 09:41:07;;;;;;;28.08;11.73;;;;;;;;;;4963168;28;20046;-62
2021/10/26 09:43:33;;;;;;;31.27;11.70;;;;;;;;;;4966347;28;20046;-62
2021/10/26 09:46:04;;;;;;;30.05;11.23;;;;;;;;;;4975741;28;20208;-62
2021/10/26 09:48:34;;;;;;;25.20;9.90;;;;;;;;;;4986010;28;20161;-62
2021/10/26 09:51:03;;;;;;;22.00;8.63;;;;;;;;;;4967727;28;20047;-62
2021/10/26 09:53:32;;;;;;;31.73;9.70;;;;;;;;;;4964570;28;20058;-62
2021/10/26 09:56:02;;;;;;;28.90;9.57;;;;;;;;;;4962998;28;20074;-62
2021/10/26 09:58:29;;;;;;;20.33;9.18;;;;;;;;;;4966591;28;20042;-62
2021/10/26 10:01:05;;;;;;;22.10;8.93;;;;;;;;;;4964060;28;20035;-62
2021/10/26 10:03:32;;;;;;;22.13;9.13;;;;;;;;;;4967478;28;20054;-62
2021/10/26 10:06:00;;;;;;;19.02;8.55;;;;;;;;;;4970440;28;20046;-62
2021/10/26 10:08:29;;;;;;;25.17;9.70;;;;;;;;;;4965287;28;20043;-62
2021/10/26 10:10:57;;;;;;;22.25;9.07;;;;;;;;;;4973232;28;20031;-62
2021/10/26 10:13:24;;;;;;;18.58;8.48;;;;;;;;;;4927065;29;20122;-62
2021/10/26 10:15:51;;;;;;;22.38;8.60;;;;;;;;;;4927989;28;20067;-62
2021/10/26 10:18:20;;;;;;;21.88;8.43;;;;;;;;;;4946291;28;20055;-62
2021/10/26 10:20:46;;;;;;;;;;;;;;;;;;4943742;28;20050;-61
2021/10/26 10:23:13;;;;;;;17.85;7.28;;;;;;;;;;4954478;28;19926;-62
2021/10/26 10:25:42;;;;;;;22.05;7.65;;;;;;;;;;4964878;28;20054;-62
2021/10/26 10:28:08;;;;;;;29.27;7.78;;;;;;;;;;4944247;28;20055;-62
2021/10/26 10:30:36;;;;;;;22.17;8.60;;;;;;;;;;4946667;28;20117;-62
2021/10/26 10:33:03;;;;;;;20.35;8.20;;;;;;;;;;4942192;28;20130;-62
2021/10/26 10:35:34;;;;;;;22.55;7.63;;;;;;;;;;4946056;28;20039;-62
2021/10/26 10:38:01;;;;;;;18.65;7.65;;;;;;;;;;4941382;28;20035;-62
2021/10/26 10:40:31;;;;;;;22.63;8.00;;;;;;;;;;4962950;28;20050;-62
2021/10/26 10:42:58;;;;;;;18.20;7.43;;;;;;;;;;4942181;28;20075;-62
2021/10/26 10:45:26;;;;;;;26.20;8.57;;;;;;;;;;4950506;28;20071;-62
2021/10/26 10:47:54;;;;;;;16.67;7.77;;;;;;;;;;4945787;28;20059;-62
2021/10/26 10:50:35;;;;;;;23.33;9.07;;;;;;;;;;4947447;28;20051;-61
2021/10/26 10:53:13;;;;;;;21.23;8.27;;;;;;;;;;4960303;28;20087;-62
2021/10/26 10:55:41;;;;;;;23.63;8.55;;;;;;;;;;4948351;28;20043;-62
2021/10/26 10:58:23;;;;;;;21.15;8.38;;;;;;;;;;4964231;28;20105;-61
2021/10/26 11:00:49;;;;;;;18.23;9.20;;;;;;;;;;4946541;28;20055;-61
2021/10/26 11:03:29;;;;;;;20.40;8.15;;;;;;;;;;4968140;28;20134;-62
2021/10/26 11:05:57;;;;;;;19.38;7.63;;;;;;;;;;4948762;28;20046;-61
2021/10/26 11:08:38;;;;;;;20.67;7.57;;;;;;;;;;4980234;28;20129;-61
2021/10/26 11:11:05;;;;;;;19.40;7.97;;;;;;;;;;4963810;28;20038;-62
2021/10/26 11:13:32;;;;;;;15.57;7.43;;;;;;;;;;4958808;28;20046;-61
2021/10/26 11:15:59;;;;;;;23.13;7.57;;;;;;;;;;4986235;28;20123;-61
2021/10/26 11:18:39;;;;;;;24.42;8.90;;;;;;;;;;4983042;28;20052;-61
2021/10/26 11:21:07;;;;;;;22.90;8.82;;;;;;;;;;4986302;28;20104;-61
2021/10/26 11:23:35;;;;;;;19.77;8.35;;;;;;;;;;4995832;28;20054;-61
2021/10/26 11:26:05;;;;;;;21.73;8.00;;;;;;;;;;4985575;28;20120;-61
2021/10/26 11:28:39;;;;;;;25.67;9.50;;;;;;;;;;4965697;28;20121;-62
2021/10/26 11:31:06;;;;;;;23.75;9.07;;;;;;;;;;5004677;28;20046;-61
2021/10/26 11:33:34;;;;;;;18.48;7.82;;;;;;;;;;4984634;28;20108;-61
2021/10/26 11:36:04;;;;;;;22.35;9.57;;;;;;;;;;4949682;28;20051;-61
2021/10/26 11:38:32;;;;;;;23.70;8.40;;;;;;;;;;4948230;28;20106;-62
2021/10/26 11:41:00;;;;;;;23.52;8.27;;;;;;;;;;4966111;28;20104;-61
2021/10/26 11:43:27;;;;;;;26.23;8.55;;;;;;;;;;4967304;28;20045;-62
2021/10/26 11:45:54;;;;;;;24.80;9.43;;;;;;;;;;4982080;28;20057;-62
2021/10/26 11:48:40;;;;;;;20.85;9.10;;;;;;;;;;4968677;28;20048;-61
2021/10/26 11:51:31;;;;;;;18.00;7.97;;;;;;;;;;4961093;28;20034;-62
2021/10/26 11:54:01;;;;;;;19.27;7.75;;;;;;;;;;4951968;28;20054;-61
2021/10/26 11:56:30;;;;;;;20.08;8.23;;;;;;;;;;4999191;28;20050;-61
2021/10/26 11:58:59;;;;;;;23.55;8.25;;;;;;;;;;4967830;28;20042;-61
2021/10/26 12:01:39;;;;;;;25.23;8.57;;;;;;;;;;4970326;28;20026;-62
2021/10/26 12:04:07;;;;;;;24.17;7.93;;;;;;;;;;4969668;28;20056;-61
2021/10/26 12:06:34;;;;;;;24.70;7.85;;;;;;;;;;4973779;28;20053;-62
2021/10/26 12:09:03;;;;;;;18.42;6.85;;;;;;;;;;4966980;28;20034;-62
2021/10/26 12:11:31;;;;;;;23.23;7.53;;;;;;;;;;4957880;28;20188;-61
2021/10/26 12:14:14;;;;;;;17.67;7.05;;;;;;;;;;4965596;28;20116;-62
2021/10/26 12:16:41;;;;;;;15.18;6.57;;;;;;;;;;4944350;28;20133;-61
2021/10/26 12:19:08;;;;;;;18.95;6.93;;;;;;;;;;4965739;28;20050;-62
2021/10/26 12:21:34;;;;;;;23.80;7.15;;;;;;;;;;4961745;28;20050;-62
2021/10/26 12:24:02;;;;;;;19.85;6.80;;;;;;;;;;4963990;28;20050;-62
2021/10/26 12:26:29;;;;;;;17.60;6.15;;;;;;;;;;4972020;28;20091;-61
2021/10/26 12:28:57;;;;;;;18.35;7.07;;;;;;;;;;4948032;28;20067;-61
2021/10/26 12:31:26;;;;;;;18.15;7.75;;;;;;;;;;4943908;28;20043;-61
2021/10/26 12:34:01;;;;;;;15.68;6.03;;;;;;;;;;4946932;28;20049;-61
2021/10/26 12:36:29;;;;;;;14.98;6.40;;;;;;;;;;4945442;28;20042;-61
2021/10/26 12:39:04;;;;;;;18.02;5.30;;;;;;;;;;4946668;28;20047;-62
2021/10/26 12:41:37;;;;;;;14.93;6.38;;;;;;;;;;4946249;28;20045;-62
2021/10/26 12:44:04;;;;;;;18.25;5.97;;;;;;;;;;4945394;28;20046;-61
2021/10/26 12:46:31;;;;;;;16.75;5.90;;;;;;;;;;4959918;28;20054;-62
2021/10/26 12:49:05;;;;;;;15.55;6.20;;;;;;;;;;4962472;28;20031;-61
2021/10/26 12:51:32;;;;;;;18.23;5.25;;;;;;;;;;4962907;28;20039;-61
2021/10/26 12:54:09;;;;;;;16.77;5.90;;;;;;;;;;4964177;28;20093;-62
2021/10/26 12:56:44;;;;;;;15.65;5.00;;;;;;;;;;4966986;28;20049;-61
2021/10/26 12:59:14;;;;;;;22.20;5.07;;;;;;;;;;4947224;28;20206;-62
2021/10/26 13:01:41;;;;;;;14.00;4.68;;;;;;;;;;4947696;28;20062;-62
2021/10/26 13:04:09;;;;;;;16.15;5.32;;;;;;;;;;4962250;28;20054;-61
2021/10/26 13:06:39;;;;;;;14.60;5.97;;;;;;;;;;4984192;28;20046;-61
2021/10/26 13:09:06;;;;;;;13.73;5.28;;;;;;;;;;4948029;28;20051;-61
2021/10/26 13:11:34;;;;;;;15.38;5.22;;;;;;;;;;4947449;28;20046;-62
2021/10/26 13:14:07;;;;;;;13.70;4.45;;;;;;;;;;4959365;28;20042;-62
2021/10/26 13:16:35;;;;;;;16.58;4.70;;;;;;;;;;4983279;28;20087;-61
2021/10/26 13:19:19;;;;;;;17.95;5.10;;;;;;;;;;4951513;28;20039;-61
2021/10/26 13:21:46;;;;;;;13.05;4.97;;;;;;;;;;4946498;28;20054;-61
2021/10/26 13:24:13;;;;;;;17.45;4.78;;;;;;;;;;4948953;28;20070;-62
2021/10/26 13:26:40;;;;;;;13.38;4.28;;;;;;;;;;4928563;29;20059;-61
2021/10/26 13:29:08;;;;;;;23.70;4.35;;;;;;;;;;4951702;28;20057;-62
2021/10/26 13:31:34;;;;;;;8.70;3.88;;;;;;;;;;4946711;28;20039;-61
2021/10/26 13:34:01;;;;;;;9.30;3.67;;;;;;;;;;4949326;28;20088;-61
2021/10/26 13:36:33;;;;;;;10.70;3.42;;;;;;;;;;4967135;28;20039;-62
2021/10/26 13:38:59;;;;;;;11.43;3.78;;;;;;;;;;4974634;28;20057;-62
2021/10/26 13:41:27;;;;;;;10.20;3.78;;;;;;;;;;4947446;28;20043;-62
2021/10/26 13:43:54;;;;;;;13.23;4.20;;;;;;;;;;4943605;28;20130;-61
2021/10/26 13:46:22;;;;;;;11.88;4.68;;;;;;;;;;4946535;28;20129;-61
2021/10/26 13:48:50;;;;;;;12.48;4.40;;;;;;;;;;4944920;28;20039;-62
2021/10/26 13:51:17;;;;;;;16.42;3.70;;;;;;;;;;4927687;29;20055;-61
2021/10/26 13:53:45;;;;;;;12.27;3.67;;;;;;;;;;4927912;29;20047;-61
2021/10/26 13:56:11;;;;;;;8.20;3.35;;;;;;;;;;4943263;28;20046;-61
2021/10/26 13:58:38;;;;;;;15.85;3.47;;;;;;;;;;4946359;28;20068;-61
2021/10/26 14:01:08;;;;;;;11.38;4.70;;;;;;;;;;4961837;28;20027;-62
2021/10/26 14:03:36;;;;;;;10.80;4.30;;;;;;;;;;4965755;28;20054;-61
2021/10/26 14:06:03;;;;;;;12.25;4.30;;;;;;;;;;4949937;28;20068;-61
2021/10/26 14:08:30;;;;;;;11.27;3.95;;;;;;;;;;4945193;28;20051;-61
2021/10/26 14:10:57;;;;;;;10.23;3.92;;;;;;;;;;4941784;28;20051;-62
2021/10/26 14:13:26;;;;;;;16.05;4.45;;;;;;;;;;4928381;29;20051;-61
2021/10/26 14:15:53;;;;;;;14.02;4.10;;;;;;;;;;4931243;28;20118;-61
2021/10/26 14:18:20;;;;;;;11.75;3.50;;;;;;;;;;4944290;28;20051;-62
2021/10/26 14:20:54;;;;;;;14.48;3.50;;;;;;;;;;4962571;28;20042;-61
2021/10/26 14:23:22;;;;;;;10.55;3.22;;;;;;;;;;4958860;28;20090;-62
2021/10/26 14:25:51;;;;;;;7.68;3.10;;;;;;;;;;4981172;28;20039;-61
2021/10/26 14:28:18;;;;;;;8.95;3.10;;;;;;;;;;4967340;28;20060;-61
2021/10/26 14:30:45;;;;;;;8.57;3.10;;;;;;;;;;4961709;28;20047;-62
2021/10/26 14:33:11;;;;;;;8.73;2.85;;;;;;;;;;4967344;28;20043;-61